createdAt,value
2023-01-11T00:07:14.080Z,8.96
2023-01-11T00:17:14.017Z,8.97
2023-01-11T00:27:14.152Z,9.00
2023-01-11T00:37:14.167Z,9.06
2023-01-11T00:47:32.374Z,9.14
2023-01-11T00:57:32.195Z,9.22
2023-01-11T01:07:32.210Z,9.31
2023-01-11T01:17:32.207Z,9.38
2023-01-11T01:27:32.195Z,9.46
2023-01-11T01:37:32.212Z,9.53
2023-01-11T01:47:32.195Z,9.61
2023-01-11T01:57:32.305Z,9.70
2023-01-11T02:07:32.258Z,9.80
2023-01-11T02:17:32.229Z,9.89
2023-01-11T02:27:32.295Z,9.96
2023-01-11T02:37:35.292Z,9.97
2023-01-11T02:47:35.282Z,9.89
2023-01-11T02:57:35.597Z,9.78
2023-01-11T03:07:35.320Z,9.69
2023-01-11T03:17:35.240Z,9.65
2023-01-11T03:27:35.390Z,9.67
2023-01-11T03:37:35.490Z,9.74
2023-01-11T03:47:35.399Z,9.83
2023-01-11T03:57:35.353Z,9.88
2023-01-11T04:07:35.424Z,9.89
2023-01-11T04:17:35.401Z,9.90
2023-01-11T04:27:35.539Z,9.92
2023-01-11T04:37:35.390Z,9.95
2023-01-11T04:47:35.384Z,10.00
2023-01-11T04:57:35.390Z,10.05
2023-01-11T05:07:35.443Z,10.11
2023-01-11T05:17:35.424Z,10.17
2023-01-11T05:27:35.488Z,10.24
2023-01-11T05:37:36.238Z,10.32
2023-01-11T05:47:36.454Z,10.41
2023-01-11T05:57:36.527Z,10.48
2023-01-11T06:07:37.111Z,10.55
2023-01-11T06:17:38.697Z,10.61
2023-01-11T06:27:38.677Z,10.67
2023-01-11T06:37:38.555Z,10.74
2023-01-11T06:47:38.541Z,10.79
2023-01-11T06:57:38.639Z,10.83
2023-01-11T07:07:38.667Z,10.86
2023-01-11T07:17:38.656Z,10.90
2023-01-11T07:27:38.621Z,10.95
2023-01-11T07:37:40.591Z,11.03
2023-01-11T07:47:40.688Z,11.13
2023-01-11T07:57:40.684Z,11.24
2023-01-11T08:07:40.767Z,11.34
2023-01-11T08:17:40.715Z,11.42
2023-01-11T08:27:41.633Z,11.48
2023-01-11T08:37:41.777Z,11.55
2023-01-11T08:47:41.764Z,11.65
2023-01-11T08:57:44.693Z,11.77
2023-01-11T09:07:44.770Z,11.86
2023-01-11T09:17:44.927Z,11.90
2023-01-11T09:27:44.876Z,11.88
2023-01-11T09:37:46.638Z,11.82
2023-01-11T09:47:47.036Z,11.76
2023-01-11T09:57:46.982Z,11.74
2023-01-11T10:07:49.291Z,11.75
2023-01-11T10:18:40.324Z,11.76
2023-01-11T10:27:54.523Z,11.75
2023-01-11T10:38:00.347Z,11.72
2023-01-11T10:48:22.159Z,11.70
2023-01-11T10:58:21.876Z,11.89
2023-01-11T11:08:23.730Z,12.24
2023-01-11T11:18:23.865Z,12.57
2023-01-11T11:28:23.896Z,12.86
2023-01-11T11:38:23.927Z,13.22
2023-01-11T11:48:23.909Z,13.50
2023-01-11T11:58:23.983Z,13.62
2023-01-11T12:08:24.598Z,13.89
2023-01-11T12:18:25.274Z,13.90
2023-01-11T12:28:26.893Z,13.54
2023-01-11T12:38:26.989Z,12.99
2023-01-11T12:48:27.208Z,12.42
2023-01-11T12:58:27.101Z,11.98
2023-01-11T13:08:27.124Z,11.71
2023-01-11T13:18:27.307Z,11.60
2023-01-11T13:28:27.125Z,11.66
2023-01-11T13:38:27.127Z,11.80
2023-01-11T13:48:27.101Z,11.84
2023-01-11T13:58:28.624Z,11.86
2023-01-11T14:08:32.117Z,12.02
2023-01-11T14:18:32.156Z,12.25
2023-01-11T14:28:32.260Z,12.32
2023-01-11T14:38:32.168Z,12.12
2023-01-11T14:48:33.914Z,11.94
2023-01-11T14:58:34.332Z,11.80
2023-01-11T15:08:34.225Z,11.58
2023-01-11T15:18:34.404Z,11.40
2023-01-11T15:28:34.306Z,11.32
2023-01-11T15:38:34.240Z,11.19
2023-01-11T15:48:34.341Z,10.92
2023-01-11T15:58:34.408Z,10.62
2023-01-11T16:08:34.356Z,10.43
2023-01-11T16:18:34.362Z,10.41
2023-01-11T16:28:34.366Z,10.45
2023-01-11T16:38:34.352Z,10.48
2023-01-11T16:48:34.367Z,10.54
2023-01-11T16:58:34.458Z,10.62
2023-01-11T17:08:35.083Z,10.68
2023-01-11T17:18:35.373Z,10.62
2023-01-11T17:28:35.489Z,10.41
2023-01-11T17:38:35.505Z,10.13
2023-01-11T17:48:35.483Z,9.94
2023-01-11T17:58:35.466Z,9.79
2023-01-11T18:08:35.402Z,9.75
2023-01-11T18:18:35.493Z,9.87
2023-01-11T18:28:36.073Z,9.98
2023-01-11T18:38:36.445Z,10.00
2023-01-11T18:48:36.452Z,9.99
2023-01-11T18:58:36.567Z,9.92
2023-01-11T19:08:36.453Z,9.86
2023-01-11T19:18:36.477Z,9.80
2023-01-11T19:28:36.479Z,9.65
2023-01-11T19:38:36.515Z,9.48
2023-01-11T19:48:36.536Z,9.43
2023-01-11T19:58:36.590Z,9.52
2023-01-11T20:08:38.070Z,9.65
2023-01-11T20:18:38.751Z,9.76
2023-01-11T20:28:38.637Z,9.82
2023-01-11T20:38:38.664Z,9.89
2023-01-11T20:48:38.671Z,9.98
2023-01-11T20:58:38.671Z,10.06
2023-01-11T21:08:38.708Z,10.16
2023-01-11T21:18:38.819Z,10.28
2023-01-11T21:28:38.682Z,10.39
2023-01-11T21:38:38.673Z,10.40
2023-01-11T21:48:38.703Z,10.29
2023-01-11T21:58:38.719Z,10.18
2023-01-11T22:08:39.231Z,10.15
2023-01-11T22:18:40.564Z,10.09
2023-01-11T22:29:00.223Z,10.00
2023-01-11T22:39:00.822Z,10.05
2023-01-11T22:49:00.710Z,10.21
2023-01-11T22:59:00.836Z,10.39
2023-01-11T23:09:05.815Z,10.56
2023-01-11T23:19:05.725Z,10.71
2023-01-11T23:29:05.768Z,10.77
2023-01-11T23:39:05.895Z,10.68
2023-01-11T23:49:05.876Z,10.50
2023-01-11T23:59:05.807Z,10.35
